sensor_id;sensor_type;location;lat;lon;timestamp;P1;durP1;ratioP1;P2;durP2;ratioP2
3217;SDS011;1621;49.702;8.618;2022-09-02T00:01:17;3.97;;;3.27;;
3217;SDS011;1621;49.702;8.618;2022-09-02T00:03:45;5.40;;;3.00;;
3217;SDS011;1621;49.702;8.618;2022-09-02T00:06:12;5.37;;;3.33;;
3217;SDS011;1621;49.702;8.618;2022-09-02T00:08:39;4.37;;;3.33;;
3217;SDS011;1621;49.702;8.618;2022-09-02T00:11:05;3.83;;;3.27;;
3217;SDS011;1621;49.702;8.618;2022-09-02T00:13:32;5.60;;;3.00;;
3217;SDS011;1621;49.702;8.618;2022-09-02T00:15:59;5.33;;;3.40;;
3217;SDS011;1621;49.702;8.618;2022-09-02T00:18:27;5.53;;;3.17;;
3217;SDS011;1621;49.702;8.618;2022-09-02T00:20:53;5.00;;;3.13;;
3217;SDS011;1621;49.702;8.618;2022-09-02T00:23:19;4.37;;;3.20;;
3217;SDS011;1621;49.702;8.618;2022-09-02T00:25:46;6.47;;;3.07;;
3217;SDS011;1621;49.702;8.618;2022-09-02T00:28:12;4.37;;;3.17;;
3217;SDS011;1621;49.702;8.618;2022-09-02T00:30:39;3.93;;;2.33;;
3217;SDS011;1621;49.702;8.618;2022-09-02T00:33:05;6.67;;;3.10;;
3217;SDS011;1621;49.702;8.618;2022-09-02T00:35:33;3.50;;;2.80;;
3217;SDS011;1621;49.702;8.618;2022-09-02T00:37:59;6.00;;;3.30;;
3217;SDS011;1621;49.702;8.618;2022-09-02T00:40:26;4.00;;;3.27;;
3217;SDS011;1621;49.702;8.618;2022-09-02T00:42:53;5.53;;;3.40;;
3217;SDS011;1621;49.702;8.618;2022-09-02T00:45:20;3.27;;;2.70;;
3217;SDS011;1621;49.702;8.618;2022-09-02T00:47:46;4.07;;;3.10;;
3217;SDS011;1621;49.702;8.618;2022-09-02T00:50:15;4.80;;;2.60;;
3217;SDS011;1621;49.702;8.618;2022-09-02T00:52:45;3.27;;;2.90;;
3217;SDS011;1621;49.702;8.618;2022-09-02T00:55:13;6.60;;;2.70;;
3217;SDS011;1621;49.702;8.618;2022-09-02T00:57:40;3.80;;;3.00;;
3217;SDS011;1621;49.702;8.618;2022-09-02T01:00:09;3.23;;;2.63;;
3217;SDS011;1621;49.702;8.618;2022-09-02T01:02:36;4.10;;;2.77;;
3217;SDS011;1621;49.702;8.618;2022-09-02T01:05:05;4.30;;;2.67;;
3217;SDS011;1621;49.702;8.618;2022-09-02T01:07:32;3.80;;;3.10;;
3217;SDS011;1621;49.702;8.618;2022-09-02T01:10:00;4.40;;;3.00;;
3217;SDS011;1621;49.702;8.618;2022-09-02T01:12:28;3.37;;;2.60;;
3217;SDS011;1621;49.702;8.618;2022-09-02T01:14:55;3.50;;;2.83;;
3217;SDS011;1621;49.702;8.618;2022-09-02T01:17:21;4.63;;;3.03;;
3217;SDS011;1621;49.702;8.618;2022-09-02T01:19:50;4.27;;;3.23;;
3217;SDS011;1621;49.702;8.618;2022-09-02T01:22:19;4.30;;;3.00;;
3217;SDS011;1621;49.702;8.618;2022-09-02T01:24:45;4.20;;;3.10;;
3217;SDS011;1621;49.702;8.618;2022-09-02T01:27:13;5.43;;;2.63;;
3217;SDS011;1621;49.702;8.618;2022-09-02T01:29:39;4.70;;;2.80;;
3217;SDS011;1621;49.702;8.618;2022-09-02T01:32:05;4.27;;;2.90;;
3217;SDS011;1621;49.702;8.618;2022-09-02T01:34:32;3.20;;;2.83;;
3217;SDS011;1621;49.702;8.618;2022-09-02T01:36:58;3.80;;;2.90;;
3217;SDS011;1621;49.702;8.618;2022-09-02T01:39:26;4.50;;;2.57;;
3217;SDS011;1621;49.702;8.618;2022-09-02T01:41:52;3.40;;;3.10;;
3217;SDS011;1621;49.702;8.618;2022-09-02T01:44:18;4.27;;;2.90;;
3217;SDS011;1621;49.702;8.618;2022-09-02T01:46:45;4.00;;;2.90;;
3217;SDS011;1621;49.702;8.618;2022-09-02T01:49:11;4.60;;;2.90;;
3217;SDS011;1621;49.702;8.618;2022-09-02T01:51:37;4.13;;;2.90;;
3217;SDS011;1621;49.702;8.618;2022-09-02T01:54:04;4.30;;;3.00;;
3217;SDS011;1621;49.702;8.618;2022-09-02T01:56:31;5.90;;;3.40;;
3217;SDS011;1621;49.702;8.618;2022-09-02T01:58:58;3.30;;;2.80;;
3217;SDS011;1621;49.702;8.618;2022-09-02T02:01:24;3.27;;;2.50;;
3217;SDS011;1621;49.702;8.618;2022-09-02T02:03:50;5.67;;;2.90;;
3217;SDS011;1621;49.702;8.618;2022-09-02T02:06:17;5.03;;;2.80;;
3217;SDS011;1621;49.702;8.618;2022-09-02T02:08:43;5.00;;;2.93;;
3217;SDS011;1621;49.702;8.618;2022-09-02T02:11:10;3.50;;;2.47;;
3217;SDS011;1621;49.702;8.618;2022-09-02T02:13:38;4.80;;;2.90;;
3217;SDS011;1621;49.702;8.618;2022-09-02T02:16:04;3.00;;;2.33;;
3217;SDS011;1621;49.702;8.618;2022-09-02T02:18:30;3.80;;;2.50;;
3217;SDS011;1621;49.702;8.618;2022-09-02T02:20:56;4.40;;;3.00;;
3217;SDS011;1621;49.702;8.618;2022-09-02T02:23:23;6.30;;;3.10;;
3217;SDS011;1621;49.702;8.618;2022-09-02T02:25:49;3.57;;;2.60;;
3217;SDS011;1621;49.702;8.618;2022-09-02T02:28:15;4.27;;;3.03;;
3217;SDS011;1621;49.702;8.618;2022-09-02T02:30:43;3.67;;;2.43;;
3217;SDS011;1621;49.702;8.618;2022-09-02T02:33:09;3.63;;;2.57;;
3217;SDS011;1621;49.702;8.618;2022-09-02T02:35:36;4.37;;;3.37;;
3217;SDS011;1621;49.702;8.618;2022-09-02T02:38:02;3.40;;;2.70;;
3217;SDS011;1621;49.702;8.618;2022-09-02T02:40:28;4.10;;;2.90;;
3217;SDS011;1621;49.702;8.618;2022-09-02T02:42:55;3.20;;;2.60;;
3217;SDS011;1621;49.702;8.618;2022-09-02T02:45:21;3.47;;;2.43;;
3217;SDS011;1621;49.702;8.618;2022-09-02T02:47:49;3.83;;;2.40;;
3217;SDS011;1621;49.702;8.618;2022-09-02T02:50:17;3.67;;;2.30;;
3217;SDS011;1621;49.702;8.618;2022-09-02T02:52:44;3.83;;;2.70;;
3217;SDS011;1621;49.702;8.618;2022-09-02T02:55:10;3.70;;;2.70;;
3217;SDS011;1621;49.702;8.618;2022-09-02T02:57:39;5.13;;;2.93;;
3217;SDS011;1621;49.702;8.618;2022-09-02T03:00:07;4.63;;;2.77;;
3217;SDS011;1621;49.702;8.618;2022-09-02T03:02:35;4.60;;;2.77;;
3217;SDS011;1621;49.702;8.618;2022-09-02T03:05:03;5.10;;;2.60;;
3217;SDS011;1621;49.702;8.618;2022-09-02T03:07:31;3.77;;;2.73;;
3217;SDS011;1621;49.702;8.618;2022-09-02T03:09:57;8.40;;;2.97;;
3217;SDS011;1621;49.702;8.618;2022-09-02T03:12:23;4.13;;;3.07;;
3217;SDS011;1621;49.702;8.618;2022-09-02T03:14:50;3.57;;;2.50;;
3217;SDS011;1621;49.702;8.618;2022-09-02T03:17:16;5.40;;;2.80;;
3217;SDS011;1621;49.702;8.618;2022-09-02T03:19:43;3.67;;;2.53;;
3217;SDS011;1621;49.702;8.618;2022-09-02T03:22:10;3.63;;;2.97;;
3217;SDS011;1621;49.702;8.618;2022-09-02T03:24:37;3.33;;;2.20;;
3217;SDS011;1621;49.702;8.618;2022-09-02T03:27:03;3.00;;;2.47;;
3217;SDS011;1621;49.702;8.618;2022-09-02T03:29:30;4.10;;;2.77;;
3217;SDS011;1621;49.702;8.618;2022-09-02T03:31:56;4.37;;;2.80;;
3217;SDS011;1621;49.702;8.618;2022-09-02T03:34:22;6.40;;;2.73;;
3217;SDS011;1621;49.702;8.618;2022-09-02T03:36:48;5.33;;;2.57;;
3217;SDS011;1621;49.702;8.618;2022-09-02T03:39:16;3.47;;;2.83;;
3217;SDS011;1621;49.702;8.618;2022-09-02T03:41:44;4.20;;;2.50;;
3217;SDS011;1621;49.702;8.618;2022-09-02T03:44:10;3.73;;;2.60;;
3217;SDS011;1621;49.702;8.618;2022-09-02T03:46:37;5.13;;;3.10;;
3217;SDS011;1621;49.702;8.618;2022-09-02T03:49:03;3.40;;;2.50;;
3217;SDS011;1621;49.702;8.618;2022-09-02T03:51:29;3.70;;;2.70;;
3217;SDS011;1621;49.702;8.618;2022-09-02T03:53:56;4.63;;;2.67;;
3217;SDS011;1621;49.702;8.618;2022-09-02T03:56:23;4.43;;;2.77;;
3217;SDS011;1621;49.702;8.618;2022-09-02T03:58:51;3.20;;;2.53;;
3217;SDS011;1621;49.702;8.618;2022-09-02T04:01:18;4.07;;;2.90;;
3217;SDS011;1621;49.702;8.618;2022-09-02T04:03:45;3.80;;;2.90;;
3217;SDS011;1621;49.702;8.618;2022-09-02T04:06:12;3.23;;;2.53;;
3217;SDS011;1621;49.702;8.618;2022-09-02T04:08:39;3.77;;;2.67;;
3217;SDS011;1621;49.702;8.618;2022-09-02T04:11:06;4.37;;;3.03;;
3217;SDS011;1621;49.702;8.618;2022-09-02T04:13:35;3.27;;;2.50;;
3217;SDS011;1621;49.702;8.618;2022-09-02T04:16:04;4.80;;;2.40;;
3217;SDS011;1621;49.702;8.618;2022-09-02T04:18:31;3.67;;;2.63;;
3217;SDS011;1621;49.702;8.618;2022-09-02T04:20:57;3.83;;;2.40;;
3217;SDS011;1621;49.702;8.618;2022-09-02T04:23:24;3.77;;;2.63;;
3217;SDS011;1621;49.702;8.618;2022-09-02T04:25:50;3.60;;;2.63;;
3217;SDS011;1621;49.702;8.618;2022-09-02T04:28:16;4.17;;;2.40;;
3217;SDS011;1621;49.702;8.618;2022-09-02T04:30:44;4.13;;;2.27;;
3217;SDS011;1621;49.702;8.618;2022-09-02T04:33:10;3.37;;;2.20;;
3217;SDS011;1621;49.702;8.618;2022-09-02T04:35:38;3.50;;;2.73;;
3217;SDS011;1621;49.702;8.618;2022-09-02T04:38:04;4.50;;;3.10;;
3217;SDS011;1621;49.702;8.618;2022-09-02T04:40:31;5.23;;;2.33;;
3217;SDS011;1621;49.702;8.618;2022-09-02T04:42:57;5.53;;;2.53;;
3217;SDS011;1621;49.702;8.618;2022-09-02T04:45:24;3.33;;;2.20;;
3217;SDS011;1621;49.702;8.618;2022-09-02T04:47:52;4.13;;;2.40;;
3217;SDS011;1621;49.702;8.618;2022-09-02T04:50:18;3.37;;;2.60;;
3217;SDS011;1621;49.702;8.618;2022-09-02T04:52:44;5.07;;;2.87;;
3217;SDS011;1621;49.702;8.618;2022-09-02T04:55:11;3.83;;;2.60;;
3217;SDS011;1621;49.702;8.618;2022-09-02T04:57:37;4.27;;;2.90;;
3217;SDS011;1621;49.702;8.618;2022-09-02T05:00:04;3.47;;;2.60;;
3217;SDS011;1621;49.702;8.618;2022-09-02T05:02:30;4.80;;;2.97;;
3217;SDS011;1621;49.702;8.618;2022-09-02T05:04:58;6.13;;;3.10;;
3217;SDS011;1621;49.702;8.618;2022-09-02T05:07:24;4.67;;;3.13;;
3217;SDS011;1621;49.702;8.618;2022-09-02T05:09:54;3.20;;;2.40;;
3217;SDS011;1621;49.702;8.618;2022-09-02T05:12:21;5.33;;;2.73;;
3217;SDS011;1621;49.702;8.618;2022-09-02T05:14:51;3.33;;;2.50;;
3217;SDS011;1621;49.702;8.618;2022-09-02T05:17:18;3.67;;;2.13;;
3217;SDS011;1621;49.702;8.618;2022-09-02T05:19:44;5.03;;;3.00;;
3217;SDS011;1621;49.702;8.618;2022-09-02T05:22:12;4.20;;;2.90;;
3217;SDS011;1621;49.702;8.618;2022-09-02T05:24:38;4.00;;;2.57;;
3217;SDS011;1621;49.702;8.618;2022-09-02T05:27:06;3.07;;;2.30;;
3217;SDS011;1621;49.702;8.618;2022-09-02T05:29:32;4.17;;;2.67;;
3217;SDS011;1621;49.702;8.618;2022-09-02T05:31:58;4.10;;;2.90;;
3217;SDS011;1621;49.702;8.618;2022-09-02T05:34:25;5.33;;;2.57;;
3217;SDS011;1621;49.702;8.618;2022-09-02T05:36:51;8.13;;;2.90;;
3217;SDS011;1621;49.702;8.618;2022-09-02T05:39:19;4.50;;;2.70;;
3217;SDS011;1621;49.702;8.618;2022-09-02T05:41:45;3.57;;;2.50;;
3217;SDS011;1621;49.702;8.618;2022-09-02T05:44:11;4.40;;;3.10;;
3217;SDS011;1621;49.702;8.618;2022-09-02T05:46:38;5.53;;;2.80;;
3217;SDS011;1621;49.702;8.618;2022-09-02T05:49:04;3.60;;;2.60;;
3217;SDS011;1621;49.702;8.618;2022-09-02T05:51:31;4.40;;;2.40;;
3217;SDS011;1621;49.702;8.618;2022-09-02T05:53:58;6.63;;;3.20;;
3217;SDS011;1621;49.702;8.618;2022-09-02T05:56:26;3.23;;;2.27;;
3217;SDS011;1621;49.702;8.618;2022-09-02T05:58:53;4.47;;;2.50;;
3217;SDS011;1621;49.702;8.618;2022-09-02T06:01:20;4.20;;;2.40;;
3217;SDS011;1621;49.702;8.618;2022-09-02T06:03:46;3.13;;;2.33;;
3217;SDS011;1621;49.702;8.618;2022-09-02T06:06:12;5.90;;;2.60;;
3217;SDS011;1621;49.702;8.618;2022-09-02T06:08:39;3.53;;;2.07;;
3217;SDS011;1621;49.702;8.618;2022-09-02T06:11:06;5.00;;;2.80;;
3217;SDS011;1621;49.702;8.618;2022-09-02T06:13:34;3.37;;;2.50;;
3217;SDS011;1621;49.702;8.618;2022-09-02T06:16:01;3.70;;;2.90;;
3217;SDS011;1621;49.702;8.618;2022-09-02T06:18:27;3.90;;;2.70;;
3217;SDS011;1621;49.702;8.618;2022-09-02T06:20:53;9.90;;;2.80;;
3217;SDS011;1621;49.702;8.618;2022-09-02T06:23:20;3.93;;;3.20;;
3217;SDS011;1621;49.702;8.618;2022-09-02T06:25:46;6.60;;;3.20;;
3217;SDS011;1621;49.702;8.618;2022-09-02T06:28:13;7.03;;;3.90;;
3217;SDS011;1621;49.702;8.618;2022-09-02T06:30:42;6.00;;;4.40;;
3217;SDS011;1621;49.702;8.618;2022-09-02T06:33:08;5.70;;;3.80;;
3217;SDS011;1621;49.702;8.618;2022-09-02T06:35:35;4.87;;;3.97;;
3217;SDS011;1621;49.702;8.618;2022-09-02T06:38:02;5.83;;;4.20;;
3217;SDS011;1621;49.702;8.618;2022-09-02T06:40:28;6.43;;;4.00;;
3217;SDS011;1621;49.702;8.618;2022-09-02T06:42:55;7.00;;;4.10;;
3217;SDS011;1621;49.702;8.618;2022-09-02T06:45:21;6.30;;;3.60;;
3217;SDS011;1621;49.702;8.618;2022-09-02T06:47:49;8.63;;;3.60;;
3217;SDS011;1621;49.702;8.618;2022-09-02T06:50:17;9.60;;;3.83;;
3217;SDS011;1621;49.702;8.618;2022-09-02T06:52:43;4.13;;;2.90;;
3217;SDS011;1621;49.702;8.618;2022-09-02T06:55:10;4.70;;;3.47;;
3217;SDS011;1621;49.702;8.618;2022-09-02T06:57:36;5.20;;;3.30;;
3217;SDS011;1621;49.702;8.618;2022-09-02T07:00:03;3.87;;;3.20;;
3217;SDS011;1621;49.702;8.618;2022-09-02T07:02:30;3.77;;;2.67;;
3217;SDS011;1621;49.702;8.618;2022-09-02T07:04:58;9.00;;;2.73;;
3217;SDS011;1621;49.702;8.618;2022-09-02T07:07:39;2.60;;;1.80;;
3217;SDS011;1621;49.702;8.618;2022-09-02T07:10:07;6.43;;;2.40;;
3217;SDS011;1621;49.702;8.618;2022-09-02T07:12:34;8.53;;;2.23;;
3217;SDS011;1621;49.702;8.618;2022-09-02T07:15:00;3.53;;;2.10;;
3217;SDS011;1621;49.702;8.618;2022-09-02T07:17:26;2.90;;;2.00;;
3217;SDS011;1621;49.702;8.618;2022-09-02T07:19:53;3.07;;;2.03;;
3217;SDS011;1621;49.702;8.618;2022-09-02T07:22:24;6.20;;;2.20;;
3217;SDS011;1621;49.702;8.618;2022-09-02T07:24:51;4.20;;;2.10;;
3217;SDS011;1621;49.702;8.618;2022-09-02T07:27:17;4.10;;;2.30;;
3217;SDS011;1621;49.702;8.618;2022-09-02T07:29:44;3.60;;;2.70;;
3217;SDS011;1621;49.702;8.618;2022-09-02T07:32:12;3.00;;;2.10;;
3217;SDS011;1621;49.702;8.618;2022-09-02T07:34:39;2.90;;;1.97;;
3217;SDS011;1621;49.702;8.618;2022-09-02T07:37:05;2.70;;;1.70;;
3217;SDS011;1621;49.702;8.618;2022-09-02T07:39:33;2.63;;;1.67;;
3217;SDS011;1621;49.702;8.618;2022-09-02T07:41:59;3.53;;;2.17;;
3217;SDS011;1621;49.702;8.618;2022-09-02T07:44:26;4.73;;;2.07;;
3217;SDS011;1621;49.702;8.618;2022-09-02T07:46:52;2.57;;;1.70;;
3217;SDS011;1621;49.702;8.618;2022-09-02T07:49:20;4.40;;;1.90;;
3217;SDS011;1621;49.702;8.618;2022-09-02T07:51:47;4.20;;;1.73;;
3217;SDS011;1621;49.702;8.618;2022-09-02T07:54:15;3.27;;;1.97;;
3217;SDS011;1621;49.702;8.618;2022-09-02T07:56:43;8.03;;;2.00;;
3217;SDS011;1621;49.702;8.618;2022-09-02T07:59:10;2.57;;;1.70;;
3217;SDS011;1621;49.702;8.618;2022-09-02T08:01:36;3.73;;;2.23;;
3217;SDS011;1621;49.702;8.618;2022-09-02T08:04:02;5.30;;;2.33;;
3217;SDS011;1621;49.702;8.618;2022-09-02T08:06:30;2.90;;;1.70;;
3217;SDS011;1621;49.702;8.618;2022-09-02T08:08:57;2.87;;;1.90;;
3217;SDS011;1621;49.702;8.618;2022-09-02T08:11:24;3.37;;;1.77;;
3217;SDS011;1621;49.702;8.618;2022-09-02T08:13:51;3.80;;;2.13;;
3217;SDS011;1621;49.702;8.618;2022-09-02T08:16:18;3.57;;;2.20;;
3217;SDS011;1621;49.702;8.618;2022-09-02T08:18:45;6.10;;;2.00;;
3217;SDS011;1621;49.702;8.618;2022-09-02T08:21:12;3.20;;;2.10;;
3217;SDS011;1621;49.702;8.618;2022-09-02T08:23:38;5.23;;;2.20;;
3217;SDS011;1621;49.702;8.618;2022-09-02T08:26:05;3.23;;;2.20;;
3217;SDS011;1621;49.702;8.618;2022-09-02T08:28:31;2.93;;;1.90;;
3217;SDS011;1621;49.702;8.618;2022-09-02T08:31:02;5.07;;;2.13;;
3217;SDS011;1621;49.702;8.618;2022-09-02T08:33:28;3.20;;;2.20;;
3217;SDS011;1621;49.702;8.618;2022-09-02T08:35:55;3.53;;;1.70;;
3217;SDS011;1621;49.702;8.618;2022-09-02T08:38:21;2.93;;;1.70;;
3217;SDS011;1621;49.702;8.618;2022-09-02T08:40:47;4.50;;;1.90;;
3217;SDS011;1621;49.702;8.618;2022-09-02T08:43:25;3.60;;;1.90;;
3217;SDS011;1621;49.702;8.618;2022-09-02T08:45:53;2.40;;;1.53;;
3217;SDS011;1621;49.702;8.618;2022-09-02T08:48:24;4.00;;;1.50;;
3217;SDS011;1621;49.702;8.618;2022-09-02T08:50:56;2.90;;;1.50;;
3217;SDS011;1621;49.702;8.618;2022-09-02T08:53:25;2.20;;;1.40;;
3217;SDS011;1621;49.702;8.618;2022-09-02T08:55:56;3.97;;;1.50;;
3217;SDS011;1621;49.702;8.618;2022-09-02T08:58:23;3.33;;;1.80;;
3217;SDS011;1621;49.702;8.618;2022-09-02T09:00:52;4.23;;;1.90;;
3217;SDS011;1621;49.702;8.618;2022-09-02T09:03:22;4.33;;;1.67;;
3217;SDS011;1621;49.702;8.618;2022-09-02T09:05:52;3.97;;;1.73;;
3217;SDS011;1621;49.702;8.618;2022-09-02T09:08:23;2.90;;;1.80;;
3217;SDS011;1621;49.702;8.618;2022-09-02T09:10:54;2.50;;;1.50;;
3217;SDS011;1621;49.702;8.618;2022-09-02T09:16:10;3.63;;;1.60;;
3217;SDS011;1621;49.702;8.618;2022-09-02T09:18:40;2.70;;;1.50;;
3217;SDS011;1621;49.702;8.618;2022-09-02T09:21:10;2.10;;;1.30;;
3217;SDS011;1621;49.702;8.618;2022-09-02T09:23:38;2.93;;;1.50;;
3217;SDS011;1621;49.702;8.618;2022-09-02T09:26:06;3.20;;;1.77;;
3217;SDS011;1621;49.702;8.618;2022-09-02T09:28:36;3.40;;;1.63;;
3217;SDS011;1621;49.702;8.618;2022-09-02T09:31:05;3.13;;;1.50;;
3217;SDS011;1621;49.702;8.618;2022-09-02T09:33:31;3.70;;;1.60;;
3217;SDS011;1621;49.702;8.618;2022-09-02T09:35:58;2.53;;;1.40;;
3217;SDS011;1621;49.702;8.618;2022-09-02T09:38:29;3.43;;;1.40;;
3217;SDS011;1621;49.702;8.618;2022-09-02T09:41:08;3.30;;;1.77;;
3217;SDS011;1621;49.702;8.618;2022-09-02T09:43:35;3.30;;;1.80;;
3217;SDS011;1621;49.702;8.618;2022-09-02T09:46:08;3.17;;;1.50;;
3217;SDS011;1621;49.702;8.618;2022-09-02T09:48:46;2.97;;;1.40;;
3217;SDS011;1621;49.702;8.618;2022-09-02T09:51:13;3.13;;;1.70;;
3217;SDS011;1621;49.702;8.618;2022-09-02T09:53:44;2.10;;;1.13;;
3217;SDS011;1621;49.702;8.618;2022-09-02T09:56:24;2.73;;;1.40;;
3217;SDS011;1621;49.702;8.618;2022-09-02T09:58:51;2.50;;;1.20;;
3217;SDS011;1621;49.702;8.618;2022-09-02T10:01:18;2.77;;;1.50;;
3217;SDS011;1621;49.702;8.618;2022-09-02T10:03:47;2.00;;;1.20;;
3217;SDS011;1621;49.702;8.618;2022-09-02T10:06:18;2.30;;;1.20;;
3217;SDS011;1621;49.702;8.618;2022-09-02T10:08:53;3.20;;;1.70;;
3217;SDS011;1621;49.702;8.618;2022-09-02T10:11:21;3.40;;;1.30;;
3217;SDS011;1621;49.702;8.618;2022-09-02T10:13:47;2.80;;;1.57;;
3217;SDS011;1621;49.702;8.618;2022-09-02T10:16:20;2.80;;;1.50;;
3217;SDS011;1621;49.702;8.618;2022-09-02T10:18:53;3.80;;;1.57;;
3217;SDS011;1621;49.702;8.618;2022-09-02T10:21:24;2.70;;;1.47;;
3217;SDS011;1621;49.702;8.618;2022-09-02T10:23:55;2.43;;;1.40;;
3217;SDS011;1621;49.702;8.618;2022-09-02T10:26:28;2.30;;;1.30;;
3217;SDS011;1621;49.702;8.618;2022-09-02T10:29:01;4.60;;;1.70;;
3217;SDS011;1621;49.702;8.618;2022-09-02T10:31:33;3.70;;;1.80;;
3217;SDS011;1621;49.702;8.618;2022-09-02T10:34:06;5.27;;;1.43;;
3217;SDS011;1621;49.702;8.618;2022-09-02T10:36:36;4.23;;;1.60;;
3217;SDS011;1621;49.702;8.618;2022-09-02T10:39:10;2.47;;;1.40;;
3217;SDS011;1621;49.702;8.618;2022-09-02T10:41:39;2.40;;;1.13;;
3217;SDS011;1621;49.702;8.618;2022-09-02T10:44:29;3.77;;;1.20;;
3217;SDS011;1621;49.702;8.618;2022-09-02T10:47:00;2.87;;;1.60;;
3217;SDS011;1621;49.702;8.618;2022-09-02T10:49:37;2.10;;;1.30;;
3217;SDS011;1621;49.702;8.618;2022-09-02T10:52:09;2.43;;;1.20;;
3217;SDS011;1621;49.702;8.618;2022-09-02T10:54:41;2.27;;;1.37;;
3217;SDS011;1621;49.702;8.618;2022-09-02T10:57:13;2.43;;;1.43;;
3217;SDS011;1621;49.702;8.618;2022-09-02T10:59:40;3.03;;;1.47;;
3217;SDS011;1621;49.702;8.618;2022-09-02T11:02:11;2.70;;;1.30;;
3217;SDS011;1621;49.702;8.618;2022-09-02T11:04:41;2.77;;;1.40;;
3217;SDS011;1621;49.702;8.618;2022-09-02T11:07:11;2.47;;;1.67;;
3217;SDS011;1621;49.702;8.618;2022-09-02T11:09:43;2.37;;;1.20;;
3217;SDS011;1621;49.702;8.618;2022-09-02T11:12:12;4.93;;;1.53;;
3217;SDS011;1621;49.702;8.618;2022-09-02T11:14:42;2.40;;;1.20;;
3217;SDS011;1621;49.702;8.618;2022-09-02T11:17:13;3.43;;;1.30;;
3217;SDS011;1621;49.702;8.618;2022-09-02T11:19:43;2.60;;;1.30;;
3217;SDS011;1621;49.702;8.618;2022-09-02T11:22:13;2.47;;;1.30;;
3217;SDS011;1621;49.702;8.618;2022-09-02T11:24:48;2.70;;;1.30;;
3217;SDS011;1621;49.702;8.618;2022-09-02T11:27:17;3.10;;;1.37;;
3217;SDS011;1621;49.702;8.618;2022-09-02T11:29:50;2.43;;;1.60;;
3217;SDS011;1621;49.702;8.618;2022-09-02T11:32:21;2.97;;;1.57;;
3217;SDS011;1621;49.702;8.618;2022-09-02T11:34:50;2.57;;;1.33;;
3217;SDS011;1621;49.702;8.618;2022-09-02T11:37:23;5.00;;;1.37;;
3217;SDS011;1621;49.702;8.618;2022-09-02T11:39:53;5.43;;;1.23;;
3217;SDS011;1621;49.702;8.618;2022-09-02T11:42:24;3.17;;;1.40;;
3217;SDS011;1621;49.702;8.618;2022-09-02T11:44:59;2.63;;;1.60;;
3217;SDS011;1621;49.702;8.618;2022-09-02T11:47:33;2.57;;;1.20;;
3217;SDS011;1621;49.702;8.618;2022-09-02T11:52:54;2.60;;;1.20;;
3217;SDS011;1621;49.702;8.618;2022-09-02T11:55:26;2.60;;;1.50;;
3217;SDS011;1621;49.702;8.618;2022-09-02T11:57:55;5.67;;;1.10;;
3217;SDS011;1621;49.702;8.618;2022-09-02T12:00:24;2.10;;;1.40;;
3217;SDS011;1621;49.702;8.618;2022-09-02T12:02:53;2.73;;;1.60;;
3217;SDS011;1621;49.702;8.618;2022-09-02T12:08:08;3.40;;;1.53;;
3217;SDS011;1621;49.702;8.618;2022-09-02T12:13:33;2.20;;;1.17;;
3217;SDS011;1621;49.702;8.618;2022-09-02T12:19:15;2.50;;;1.40;;
3217;SDS011;1621;49.702;8.618;2022-09-02T12:21:34;4.10;;;1.30;;
3217;SDS011;1621;49.702;8.618;2022-09-02T12:24:06;2.50;;;1.30;;
3217;SDS011;1621;49.702;8.618;2022-09-02T12:29:29;2.13;;;1.40;;
3217;SDS011;1621;49.702;8.618;2022-09-02T12:31:56;1.77;;;1.07;;
3217;SDS011;1621;49.702;8.618;2022-09-02T12:37:15;2.70;;;1.70;;
3217;SDS011;1621;49.702;8.618;2022-09-02T12:39:57;2.10;;;1.40;;
3217;SDS011;1621;49.702;8.618;2022-09-02T12:42:27;2.77;;;1.20;;
3217;SDS011;1621;49.702;8.618;2022-09-02T12:45:05;2.30;;;1.20;;
3217;SDS011;1621;49.702;8.618;2022-09-02T12:47:39;3.60;;;1.60;;
3217;SDS011;1621;49.702;8.618;2022-09-02T12:50:09;3.37;;;1.33;;
3217;SDS011;1621;49.702;8.618;2022-09-02T12:52:38;4.40;;;1.50;;
3217;SDS011;1621;49.702;8.618;2022-09-02T12:55:07;2.13;;;1.13;;
3217;SDS011;1621;49.702;8.618;2022-09-02T12:57:37;3.90;;;1.30;;
3217;SDS011;1621;49.702;8.618;2022-09-02T13:00:03;3.90;;;1.20;;
3217;SDS011;1621;49.702;8.618;2022-09-02T13:02:35;2.93;;;1.30;;
3217;SDS011;1621;49.702;8.618;2022-09-02T13:05:10;2.23;;;1.20;;
3217;SDS011;1621;49.702;8.618;2022-09-02T13:07:54;3.10;;;1.30;;
3217;SDS011;1621;49.702;8.618;2022-09-02T13:10:36;2.17;;;1.37;;
3217;SDS011;1621;49.702;8.618;2022-09-02T13:13:18;2.33;;;1.20;;
3217;SDS011;1621;49.702;8.618;2022-09-02T13:15:56;2.90;;;1.23;;
3217;SDS011;1621;49.702;8.618;2022-09-02T13:21:30;2.23;;;1.10;;
3217;SDS011;1621;49.702;8.618;2022-09-02T13:26:53;5.50;;;1.30;;
3217;SDS011;1621;49.702;8.618;2022-09-02T13:29:35;2.77;;;1.10;;
3217;SDS011;1621;49.702;8.618;2022-09-02T13:32:10;3.10;;;1.30;;
3217;SDS011;1621;49.702;8.618;2022-09-02T13:34:39;2.40;;;1.33;;
3217;SDS011;1621;49.702;8.618;2022-09-02T13:37:07;1.90;;;1.20;;
3217;SDS011;1621;49.702;8.618;2022-09-02T13:39:51;2.07;;;1.20;;
3217;SDS011;1621;49.702;8.618;2022-09-02T13:42:17;2.37;;;1.30;;
3217;SDS011;1621;49.702;8.618;2022-09-02T13:44:44;4.17;;;1.20;;
3217;SDS011;1621;49.702;8.618;2022-09-02T13:47:11;2.17;;;1.07;;
3217;SDS011;1621;49.702;8.618;2022-09-02T13:49:40;2.10;;;1.30;;
3217;SDS011;1621;49.702;8.618;2022-09-02T13:52:12;4.30;;;1.30;;
3217;SDS011;1621;49.702;8.618;2022-09-02T13:54:42;1.70;;;1.10;;
3217;SDS011;1621;49.702;8.618;2022-09-02T13:57:10;2.70;;;1.27;;
3217;SDS011;1621;49.702;8.618;2022-09-02T13:59:38;1.80;;;1.10;;
3217;SDS011;1621;49.702;8.618;2022-09-02T14:02:22;2.50;;;1.13;;
3217;SDS011;1621;49.702;8.618;2022-09-02T14:04:50;1.87;;;1.20;;
3217;SDS011;1621;49.702;8.618;2022-09-02T14:07:21;4.23;;;1.73;;
3217;SDS011;1621;49.702;8.618;2022-09-02T14:09:49;2.30;;;1.10;;
3217;SDS011;1621;49.702;8.618;2022-09-02T14:12:15;5.60;;;1.30;;
3217;SDS011;1621;49.702;8.618;2022-09-02T14:14:42;3.10;;;1.07;;
3217;SDS011;1621;49.702;8.618;2022-09-02T14:17:19;2.73;;;1.30;;
3217;SDS011;1621;49.702;8.618;2022-09-02T14:19:46;2.53;;;1.27;;
3217;SDS011;1621;49.702;8.618;2022-09-02T14:22:22;1.70;;;1.00;;
3217;SDS011;1621;49.702;8.618;2022-09-02T14:24:49;1.80;;;1.10;;
3217;SDS011;1621;49.702;8.618;2022-09-02T14:27:16;2.17;;;1.20;;
3217;SDS011;1621;49.702;8.618;2022-09-02T14:29:43;1.73;;;1.10;;
3217;SDS011;1621;49.702;8.618;2022-09-02T14:32:11;2.00;;;1.07;;
3217;SDS011;1621;49.702;8.618;2022-09-02T14:34:38;2.17;;;1.10;;
3217;SDS011;1621;49.702;8.618;2022-09-02T14:37:15;2.07;;;1.13;;
3217;SDS011;1621;49.702;8.618;2022-09-02T14:42:25;4.30;;;1.10;;
3217;SDS011;1621;49.702;8.618;2022-09-02T14:44:52;2.17;;;1.30;;
3217;SDS011;1621;49.702;8.618;2022-09-02T14:47:18;1.97;;;1.30;;
3217;SDS011;1621;49.702;8.618;2022-09-02T14:49:46;2.23;;;1.20;;
3217;SDS011;1621;49.702;8.618;2022-09-02T14:52:15;5.10;;;1.07;;
3217;SDS011;1621;49.702;8.618;2022-09-02T14:54:43;2.10;;;1.13;;
3217;SDS011;1621;49.702;8.618;2022-09-02T14:57:22;2.43;;;1.13;;
3217;SDS011;1621;49.702;8.618;2022-09-02T14:59:50;2.00;;;1.20;;
3217;SDS011;1621;49.702;8.618;2022-09-02T15:02:21;3.23;;;1.03;;
3217;SDS011;1621;49.702;8.618;2022-09-02T15:04:47;2.40;;;1.20;;
3217;SDS011;1621;49.702;8.618;2022-09-02T15:07:13;2.20;;;1.20;;
3217;SDS011;1621;49.702;8.618;2022-09-02T15:09:40;6.03;;;1.00;;
3217;SDS011;1621;49.702;8.618;2022-09-02T15:12:08;2.57;;;1.37;;
3217;SDS011;1621;49.702;8.618;2022-09-02T15:14:35;2.03;;;1.10;;
3217;SDS011;1621;49.702;8.618;2022-09-02T15:17:03;2.30;;;1.13;;
3217;SDS011;1621;49.702;8.618;2022-09-02T15:19:32;2.43;;;1.23;;
3217;SDS011;1621;49.702;8.618;2022-09-02T15:21:58;2.13;;;1.10;;
3217;SDS011;1621;49.702;8.618;2022-09-02T15:24:24;4.40;;;1.20;;
3217;SDS011;1621;49.702;8.618;2022-09-02T15:26:50;2.20;;;1.40;;
3217;SDS011;1621;49.702;8.618;2022-09-02T15:29:17;2.40;;;1.30;;
3217;SDS011;1621;49.702;8.618;2022-09-02T15:31:43;3.13;;;1.30;;
3217;SDS011;1621;49.702;8.618;2022-09-02T15:34:11;2.00;;;1.10;;
3217;SDS011;1621;49.702;8.618;2022-09-02T15:36:37;1.83;;;1.17;;
3217;SDS011;1621;49.702;8.618;2022-09-02T15:39:03;2.20;;;1.27;;
3217;SDS011;1621;49.702;8.618;2022-09-02T15:41:29;2.50;;;1.40;;
3217;SDS011;1621;49.702;8.618;2022-09-02T15:43:56;1.80;;;1.10;;
3217;SDS011;1621;49.702;8.618;2022-09-02T15:46:24;2.40;;;0.97;;
3217;SDS011;1621;49.702;8.618;2022-09-02T15:48:51;2.40;;;1.13;;
3217;SDS011;1621;49.702;8.618;2022-09-02T15:51:20;2.20;;;1.03;;